Time;durP1;ratioP1;P1;durP2;ratioP2;P2;SDS_P1;SDS_P2;PMS_P1;PMS_P2;Temp;Humidity;BMP_temperature;BMP_pressure;BME280_temperature;BME280_humidity;BME280_pressure;Samples;Min_cycle;Max_cycle;Signal;HPM_P1;HPM_P2
2022/07/11 01:13:07;;;;;;;16.50;15.73;;;18.40;29.20;;;;;;5937852;24;20442;-84
2022/07/11 01:44:08;;;;;;;17.17;16.57;;;17.80;31.90;;;;;;6077748;23;20422;-83
2022/07/11 02:31:28;;;;;;;18.57;17.87;;;18.20;30.70;;;;;;6138909;23;20381;-81
2022/07/11 03:09:37;;;;;;;19.97;19.20;;;16.90;37.60;;;;;;6079315;23;20403;-80
2022/07/11 03:19:52;;;;;;;21.20;20.20;;;17.10;37.10;;;;;;5994441;24;20378;-83
2022/07/11 03:50:21;;;;;;;22.50;21.60;;;17.00;38.50;;;;;;6119306;23;20384;-81
2022/07/11 04:00:31;;;;;;;23.43;22.43;;;17.70;36.60;;;;;;6110280;23;20398;-78
2022/07/11 04:45:03;;;;;;;21.60;20.80;;;18.60;34.00;;;;;;6196091;23;20569;-83
2022/07/11 05:05:31;;;;;;;22.70;21.73;;;18.70;34.30;;;;;;5977100;23;20469;-82
2022/07/11 05:12:27;;;;;;;22.53;21.63;;;18.70;34.70;;;;;;5965353;24;20420;-82
2022/07/11 05:23:23;;;;;;;21.37;20.57;;;17.60;38.20;;;;;;5963148;24;20431;-83
2022/07/11 05:33:15;;;;;;;22.30;21.37;;;17.70;38.20;;;;;;6006465;23;20508;-80
2022/07/11 05:36:19;;;;;;;21.97;21.07;;;18.00;37.80;;;;;;6049735;23;20420;-81
2022/07/11 05:43:20;;;;;;;23.13;22.13;;;18.30;36.30;;;;;;6022005;23;20380;-82
2022/07/11 05:47:00;;;;;;;23.00;22.00;;;18.60;35.40;;;;;;6052892;23;20412;-82
2022/07/11 05:50:49;;;;;;;22.80;21.60;;;18.70;34.90;;;;;;6105512;23;20461;-81
2022/07/11 06:01:32;;;;;;;22.60;21.50;;;18.80;34.50;;;;;;6021107;23;20409;-82
2022/07/11 06:05:14;;;;;;;21.83;21.03;;;18.80;34.00;;;;;;6007804;23;20413;-81
2022/07/11 06:08:48;;;;;;;23.17;21.67;;;18.90;34.20;;;;;;6078689;23;20527;-81
2022/07/11 06:12:30;;;;;;;21.80;21.00;;;18.90;33.90;;;;;;6021665;23;20481;-81
2022/07/11 06:22:41;;;;;;;21.83;20.97;;;19.00;33.80;;;;;;5967416;24;20422;-81
2022/07/11 06:29:23;;;;;;;23.07;22.17;;;18.90;33.70;;;;;;5967317;24;20400;-82
2022/07/11 06:36:09;;;;;;;22.67;21.77;;;19.00;34.30;;;;;;6022296;23;20417;-83
2022/07/11 06:46:05;;;;;;;23.23;22.23;;;18.90;34.10;;;;;;5915575;24;20470;-82
2022/07/11 06:56:30;;;;;;;22.50;21.40;;;19.00;33.70;;;;;;6051383;23;20505;-80
2022/07/11 06:59:16;;;;;;;22.83;21.77;;;19.10;33.50;;;;;;6017168;23;20496;-80
2022/07/11 07:06:21;;;;;;;22.00;21.13;;;19.10;32.50;;;;;;6021062;23;20433;-82
2022/07/11 07:23:34;;;;;;;22.37;21.47;;;18.80;34.40;;;;;;6257150;23;20386;-82
2022/07/11 07:26:45;;;;;;;24.17;22.30;;;18.80;34.50;;;;;;6141923;23;20402;-81
2022/07/11 07:40:03;;;;;;;20.17;19.37;;;18.80;32.60;;;;;;6140275;23;20401;-81
2022/07/11 07:47:03;;;;;;;20.10;19.30;;;19.10;33.00;;;;;;6052995;23;20387;-81
2022/07/11 07:53:56;;;;;;;20.23;19.50;;;19.20;32.20;;;;;;5972135;24;20455;-82
2022/07/11 07:57:55;;;;;;;19.87;19.17;;;19.40;32.10;;;;;;5963003;24;20374;-82
2022/07/11 08:01:36;;;;;;;19.90;19.20;;;19.30;30.90;;;;;;5898162;24;20407;-81
2022/07/11 08:04:55;;;;;;;19.87;19.17;;;19.40;30.60;;;;;;5910651;24;20420;-81
2022/07/11 08:14:23;;;;;;;19.63;18.93;;;19.60;29.90;;;;;;5943353;23;20450;-81
2022/07/11 08:21:01;;;;;;;19.70;19.00;;;19.90;29.10;;;;;;5979540;23;20460;-80
2022/07/11 08:24:11;;;;;;;19.97;19.27;;;20.00;28.90;;;;;;6052307;23;20481;-81
2022/07/11 08:26:59;;;;;;;18.60;17.90;;;19.90;28.80;;;;;;6174716;23;20404;-83
2022/07/11 08:30:11;;;;;;;19.73;19.03;;;19.80;29.40;;;;;;6177295;23;20446;-82
2022/07/11 08:33:21;;;;;;;19.23;18.53;;;20.10;28.60;;;;;;6140026;23;20457;-82
2022/07/11 08:35:56;;;;;;;19.40;18.70;;;20.30;28.40;;;;;;6082823;23;20418;-81
2022/07/11 08:39:50;;;;;;;19.43;18.33;;;20.20;28.20;;;;;;6278253;22;20390;-82
2022/07/11 08:43:21;;;;;;;18.43;17.83;;;20.20;27.80;;;;;;6250359;23;20378;-83
2022/07/11 08:53:16;;;;;;;19.30;18.40;;;20.50;26.80;;;;;;6178317;23;20793;-82
2022/07/11 08:59:43;;;;;;;19.03;18.23;;;20.60;26.50;;;;;;6286475;22;20356;-81
2022/07/11 09:03:11;;;;;;;17.93;17.33;;;21.20;24.70;;;;;;6285246;22;20385;-81
2022/07/11 09:06:30;;;;;;;18.17;17.47;;;21.00;25.10;;;;;;6280703;22;20409;-81
2022/07/11 09:09:23;;;;;;;17.63;16.93;;;20.90;24.80;;;;;;6132461;23;20373;-82
2022/07/11 09:12:34;;;;;;;17.50;16.90;;;21.00;24.20;;;;;;6108120;23;20453;-81
2022/07/11 09:15:43;;;;;;;17.90;17.30;;;21.30;24.40;;;;;;6137591;23;20497;-81
2022/07/11 09:25:50;;;;;;;18.43;17.83;;;21.60;23.70;;;;;;5994372;23;20501;-81
2022/07/11 09:28:25;;;;;;;18.60;17.80;;;21.50;22.90;;;;;;6075639;23;20450;-81
2022/07/11 09:31:45;;;;;;;18.27;17.47;;;21.30;22.80;;;;;;6075236;23;20383;-82
2022/07/11 09:34:39;;;;;;;18.67;17.97;;;21.30;23.70;;;;;;6122599;23;20488;-81
2022/07/11 09:41:52;;;;;;;17.97;17.23;;;21.10;24.60;;;;;;6192407;23;20412;-81
2022/07/11 09:45:21;;;;;;;17.73;16.93;;;21.00;25.20;;;;;;6243242;22;20413;-81
2022/07/11 09:48:58;;;;;;;18.23;17.53;;;21.00;25.20;;;;;;6191625;23;20907;-82
2022/07/11 09:52:18;;;;;;;18.97;18.27;;;20.80;25.40;;;;;;6160254;23;20412;-81
2022/07/11 10:08:26;;;;;;;17.30;16.70;;;21.00;23.90;;;;;;6161569;23;20341;-82
2022/07/11 10:11:41;;;;;;;17.30;16.60;;;21.00;23.70;;;;;;6131104;23;20366;-82
2022/07/11 10:14:56;;;;;;;17.40;16.80;;;21.00;23.70;;;;;;6089507;23;20425;-81
2022/07/11 10:18:36;;;;;;;17.83;17.13;;;21.00;23.40;;;;;;6165181;23;20368;-82
2022/07/11 10:21:56;;;;;;;16.80;16.30;;;21.10;23.70;;;;;;6118819;23;20389;-83
2022/07/11 10:24:30;;;;;;;17.17;16.57;;;21.20;22.50;;;;;;6107194;23;20406;-82
2022/07/11 10:27:12;;;;;;;17.13;16.17;;;21.20;22.60;;;;;;6162923;23;20427;-82
2022/07/11 10:30:02;;;;;;;17.20;16.60;;;21.50;22.70;;;;;;6163573;23;20396;-84
2022/07/11 10:33:22;;;;;;;17.37;16.77;;;21.60;22.80;;;;;;6183990;23;20497;-81
2022/07/11 10:36:31;;;;;;;17.00;16.40;;;21.60;22.60;;;;;;6279516;22;20401;-81
2022/07/11 10:39:17;;;;;;;17.93;17.33;;;21.60;23.00;;;;;;6251004;22;20443;-81
2022/07/11 10:42:21;;;;;;;17.70;17.00;;;21.70;22.50;;;;;;6287282;22;20384;-80
2022/07/11 10:47:53;;;;;;;17.03;16.33;;;22.00;22.20;;;;;;6270015;22;20725;-81
2022/07/11 10:51:21;;;;;;;17.63;17.03;;;21.90;22.20;;;;;;6289086;22;20381;-81
2022/07/11 10:54:34;;;;;;;17.40;16.50;;;22.00;22.20;;;;;;6213789;23;20387;-81
2022/07/11 10:57:13;;;;;;;17.63;17.00;;;21.90;22.20;;;;;;6287039;22;20888;-80
2022/07/11 11:07:01;;;;;;;17.10;16.60;;;21.80;22.30;;;;;;6255708;23;20378;-81
2022/07/11 11:09:47;;;;;;;17.50;16.90;;;21.80;22.40;;;;;;6227938;23;20406;-82
2022/07/11 11:12:21;;;;;;;17.47;16.87;;;21.80;21.90;;;;;;6227936;23;20449;-82
2022/07/11 11:15:24;;;;;;;17.43;16.83;;;21.80;21.80;;;;;;6228403;23;20409;-81
2022/07/11 11:18:43;;;;;;;17.10;16.50;;;21.90;21.90;;;;;;6229290;23;20410;-79
2022/07/11 11:21:26;;;;;;;17.30;16.70;;;22.00;21.60;;;;;;6228342;23;20390;-80
2022/07/11 11:24:02;;;;;;;17.70;17.10;;;21.90;22.10;;;;;;6228323;23;20390;-80
2022/07/11 11:27:08;;;;;;;17.97;17.27;;;21.90;22.00;;;;;;6221254;23;20511;-82
2022/07/11 11:29:35;;;;;;;17.40;16.80;;;21.90;22.00;;;;;;6218881;23;20905;-81
2022/07/11 11:32:36;;;;;;;16.03;15.53;;;21.90;22.40;;;;;;6240181;22;20413;-81
2022/07/11 11:35:27;;;;;;;16.43;15.83;;;21.90;22.30;;;;;;6232869;22;20417;-82
2022/07/11 11:38:04;;;;;;;15.77;15.27;;;21.80;22.40;;;;;;6267820;22;20423;-81
2022/07/11 11:41:05;;;;;;;16.50;15.90;;;21.80;22.40;;;;;;6285793;22;20381;-82
2022/07/11 11:43:46;;;;;;;17.50;16.90;;;22.00;22.10;;;;;;6246974;22;20397;-82
2022/07/11 11:46:37;;;;;;;17.20;16.60;;;22.20;21.70;;;;;;6291937;22;20436;-81
2022/07/11 11:53:22;;;;;;;17.40;16.80;;;22.10;22.40;;;;;;6314340;22;20435;-79
2022/07/11 11:55:57;;;;;;;17.67;17.00;;;22.10;22.00;;;;;;6313310;22;20451;-79
2022/07/11 11:58:29;;;;;;;18.10;17.40;;;22.20;22.30;;;;;;6309726;22;20380;-82
2022/07/11 12:01:05;;;;;;;17.60;17.00;;;22.20;22.10;;;;;;6262564;22;20423;-81
2022/07/11 12:04:08;;;;;;;17.10;16.47;;;22.10;22.20;;;;;;6287868;22;20445;-81
2022/07/11 12:06:50;;;;;;;17.70;17.10;;;22.10;22.10;;;;;;6250922;22;20397;-81
2022/07/11 12:09:46;;;;;;;17.80;17.20;;;22.10;22.10;;;;;;6313414;22;20461;-81
2022/07/11 12:15:25;;;;;;;18.33;17.57;;;22.10;22.40;;;;;;6313306;22;20926;-82
2022/07/11 12:22:02;;;;;;;19.33;18.63;;;22.20;22.60;;;;;;6314620;22;20340;-81
2022/07/11 12:24:46;;;;;;;17.73;17.03;;;22.20;22.30;;;;;;6313763;22;20907;-80
2022/07/11 12:27:19;;;;;;;16.97;16.37;;;22.20;22.40;;;;;;6287290;22;20380;-80
2022/07/11 12:29:53;;;;;;;16.00;15.40;;;22.20;22.80;;;;;;6304066;22;20382;-80
2022/07/11 12:32:55;;;;;;;16.50;15.90;;;22.20;22.80;;;;;;6264516;22;20431;-80
2022/07/11 12:36:19;;;;;;;16.03;15.50;;;22.20;23.00;;;;;;6298042;22;20393;-80
2022/07/11 12:39:51;;;;;;;18.10;17.40;;;22.30;22.90;;;;;;6286258;22;20397;-83
2022/07/11 12:44:57;;;;;;;17.90;17.20;;;22.20;23.20;;;;;;6133879;23;20886;-82
2022/07/11 12:46:18;;;;;;;17.80;17.10;;;22.30;22.80;;;;;;6286387;22;20491;-80
2022/07/11 12:49:10;;;;;;;17.73;17.07;;;22.40;22.40;;;;;;6283463;22;20381;-82
2022/07/11 12:52:34;;;;;;;17.13;16.50;;;22.30;22.90;;;;;;6209169;23;20362;-81
2022/07/11 12:56:02;;;;;;;18.23;17.63;;;22.30;23.10;;;;;;6238867;22;20390;-81
2022/07/11 12:59:42;;;;;;;17.30;16.70;;;22.30;23.10;;;;;;6171235;23;20365;-81
2022/07/11 13:06:15;;;;;;;17.57;16.87;;;22.30;22.90;;;;;;6224041;23;20445;-81
2022/07/11 13:09:02;;;;;;;17.50;16.90;;;22.20;23.20;;;;;;6245962;23;20375;-80
2022/07/11 13:11:31;;;;;;;17.00;16.40;;;22.30;23.20;;;;;;6235191;22;20461;-81
2022/07/11 13:13:58;;;;;;;16.70;16.00;;;22.40;22.40;;;;;;6266081;22;20920;-82
2022/07/11 13:16:47;;;;;;;16.57;15.93;;;22.50;22.10;;;;;;6286852;22;20420;-79
2022/07/11 13:19:51;;;;;;;17.30;16.70;;;22.60;21.80;;;;;;6285120;22;20384;-81
2022/07/11 13:22:33;;;;;;;17.43;16.83;;;22.50;21.90;;;;;;6287785;22;20388;-82
2022/07/11 13:24:59;;;;;;;17.80;17.07;;;22.50;22.60;;;;;;6264060;22;20416;-82
2022/07/11 13:27:34;;;;;;;17.00;16.40;;;22.50;22.40;;;;;;6286607;22;20397;-82
2022/07/11 13:30:30;;;;;;;17.83;17.13;;;22.50;22.50;;;;;;6286632;22;20381;-82
2022/07/11 13:33:03;;;;;;;18.37;17.60;;;22.60;22.10;;;;;;6266076;22;20440;-81
2022/07/11 13:35:34;;;;;;;17.43;16.73;;;22.60;22.30;;;;;;6284969;22;20409;-85
2022/07/11 13:38:05;;;;;;;18.10;17.40;;;22.60;22.10;;;;;;6285144;22;20377;-83
2022/07/11 13:40:33;;;;;;;17.60;17.00;;;22.50;22.20;;;;;;6281325;22;20439;-80
2022/07/11 13:43:02;;;;;;;18.10;17.40;;;22.50;22.50;;;;;;6287220;22;20346;-81
2022/07/11 13:45:40;;;;;;;18.40;17.70;;;22.50;22.20;;;;;;6283961;22;20704;-79
2022/07/11 13:48:08;;;;;;;18.40;17.60;;;22.40;22.50;;;;;;6275837;22;20396;-82
2022/07/11 13:54:41;;;;;;;16.77;16.17;;;22.70;22.00;;;;;;6272635;22;20509;-81
2022/07/11 13:58:27;;;;;;;18.63;17.83;;;22.60;22.70;;;;;;6285239;22;20385;-81
2022/07/11 14:00:52;;;;;;;19.10;18.30;;;22.70;22.60;;;;;;6286320;22;20385;-81
2022/07/11 14:03:21;;;;;;;18.07;17.27;;;22.80;22.10;;;;;;6287481;22;20377;-80
2022/07/11 14:05:47;;;;;;;19.90;18.90;;;22.70;22.50;;;;;;6289311;22;20163;-81
2022/07/11 14:08:12;;;;;;;18.03;17.23;;;22.70;22.50;;;;;;6290639;22;20393;-82
2022/07/11 14:10:40;;;;;;;17.67;17.00;;;22.80;22.80;;;;;;6313299;22;20171;-81
2022/07/11 14:13:06;;;;;;;18.20;17.50;;;22.70;23.00;;;;;;6287736;22;20178;-81
2022/07/11 14:15:31;;;;;;;17.20;16.60;;;22.70;23.00;;;;;;6294348;22;20404;-82
2022/07/11 14:17:57;;;;;;;18.00;17.30;;;22.60;23.50;;;;;;6313982;22;20150;-81
2022/07/11 14:20:26;;;;;;;16.80;16.20;;;22.60;23.50;;;;;;6313660;22;20484;-80
2022/07/11 14:22:52;;;;;;;17.60;16.90;;;22.60;23.20;;;;;;6289232;22;20193;-80
2022/07/11 14:25:17;;;;;;;17.87;17.10;;;22.60;22.90;;;;;;6316863;22;20409;-81
2022/07/11 14:27:43;;;;;;;17.47;16.67;;;22.60;23.50;;;;;;6293563;22;20468;-80
2022/07/11 14:30:09;;;;;;;17.00;16.40;;;22.50;23.40;;;;;;6287919;22;20150;-82
2022/07/11 14:32:35;;;;;;;17.30;16.60;;;22.50;23.40;;;;;;6315375;22;20428;-82
2022/07/11 14:35:01;;;;;;;17.57;16.87;;;22.50;23.40;;;;;;6290363;22;20234;-82
2022/07/11 14:37:26;;;;;;;17.63;16.93;;;22.50;23.40;;;;;;6291635;22;20868;-80
2022/07/11 14:39:52;;;;;;;17.90;17.20;;;22.50;23.40;;;;;;6302351;22;20197;-81
2022/07/11 14:42:18;;;;;;;18.30;17.40;;;22.50;23.90;;;;;;6297867;22;20166;-80
2022/07/11 14:44:44;;;;;;;18.90;17.80;;;22.50;23.90;;;;;;6324392;22;20417;-80
2022/07/11 14:47:09;;;;;;;17.17;16.47;;;22.50;23.90;;;;;;6324732;22;20189;-77
2022/07/11 14:49:35;;;;;;;17.60;16.90;;;22.60;24.10;;;;;;6324294;22;20162;-81
2022/07/11 14:52:01;;;;;;;17.63;16.93;;;22.60;24.30;;;;;;6298691;22;20166;-79
2022/07/11 14:54:27;;;;;;;17.30;16.50;;;22.60;23.80;;;;;;6298591;22;20170;-79
2022/07/11 14:56:52;;;;;;;17.00;16.40;;;22.60;23.80;;;;;;6299692;22;20408;-79
2022/07/11 14:59:18;;;;;;;17.77;16.97;;;22.60;23.80;;;;;;6299294;22;20143;-80
2022/07/11 15:01:43;;;;;;;17.10;16.50;;;22.60;23.50;;;;;;6315436;22;20157;-78
2022/07/11 15:04:09;;;;;;;16.80;16.10;;;22.70;23.50;;;;;;6280633;22;20306;-78
2022/07/11 15:12:23;;;;;;;17.70;17.10;;;22.60;23.80;;;;;;6286256;22;20368;-78
2022/07/11 15:14:49;;;;;;;17.93;17.23;;;22.50;23.70;;;;;;6283269;22;20416;-80
2022/07/11 15:17:15;;;;;;;17.30;16.60;;;22.50;23.70;;;;;;6285272;22;20373;-79
2022/07/11 15:19:40;;;;;;;18.90;17.90;;;22.50;24.10;;;;;;6278996;22;20460;-80
2022/07/11 15:22:06;;;;;;;17.57;16.77;;;22.50;24.20;;;;;;6277088;22;20211;-79
2022/07/11 15:24:32;;;;;;;18.10;17.07;;;22.50;24.40;;;;;;6275524;22;20194;-79
2022/07/11 15:26:58;;;;;;;17.57;16.77;;;22.60;23.50;;;;;;6278033;22;20790;-79
2022/07/11 15:29:25;;;;;;;17.80;17.10;;;22.60;23.50;;;;;;6279516;22;20385;-79
2022/07/11 15:31:50;;;;;;;17.60;16.80;;;22.50;23.60;;;;;;6277313;22;20246;-79
2022/07/11 15:34:18;;;;;;;17.63;16.97;;;22.50;23.80;;;;;;6279108;22;20431;-79
2022/07/11 15:36:44;;;;;;;16.93;16.33;;;22.50;24.20;;;;;;6278330;22;20153;-79
2022/07/11 15:39:09;;;;;;;17.90;17.20;;;22.50;23.90;;;;;;6302332;22;20472;-79
2022/07/11 15:41:42;;;;;;;17.23;16.60;;;22.60;23.50;;;;;;6276465;22;20167;-79
2022/07/11 15:44:08;;;;;;;17.23;16.50;;;22.70;23.50;;;;;;6277641;22;20519;-79
2022/07/11 15:46:34;;;;;;;17.57;16.87;;;22.70;23.00;;;;;;6277735;22;20460;-79
2022/07/11 15:49:00;;;;;;;17.03;16.40;;;22.70;23.00;;;;;;6277914;22;20222;-79
2022/07/11 15:51:26;;;;;;;17.57;16.87;;;22.70;22.70;;;;;;6278073;22;20159;-78
2022/07/11 15:53:52;;;;;;;17.40;16.70;;;22.80;22.60;;;;;;6279215;22;20447;-79
2022/07/11 15:56:18;;;;;;;18.90;18.00;;;22.80;23.00;;;;;;6282878;22;20163;-79
2022/07/11 15:58:43;;;;;;;18.03;17.13;;;22.80;22.70;;;;;;6282330;22;20151;-79
2022/07/11 16:01:09;;;;;;;16.90;16.00;;;22.80;22.40;;;;;;6277937;22;20384;-79
2022/07/11 16:03:37;;;;;;;17.03;16.33;;;22.70;23.00;;;;;;6276809;22;20210;-78
2022/07/11 16:06:03;;;;;;;20.73;19.53;;;22.90;22.60;;;;;;6275622;22;20584;-77
2022/07/11 16:08:28;;;;;;;19.40;18.40;;;22.90;22.60;;;;;;6275069;22;20396;-79
2022/07/11 16:10:54;;;;;;;16.33;15.73;;;22.90;22.80;;;;;;6279356;22;20591;-80
2022/07/11 16:13:20;;;;;;;16.97;16.20;;;22.90;22.90;;;;;;6280185;22;20198;-80
2022/07/11 16:15:46;;;;;;;17.07;16.37;;;22.80;22.70;;;;;;6278509;22;20175;-78
2022/07/11 16:18:13;;;;;;;16.90;16.20;;;22.80;22.90;;;;;;6280295;22;20146;-79
2022/07/11 16:20:40;;;;;;;17.37;16.47;;;22.70;22.70;;;;;;6277133;22;20392;-78
2022/07/11 16:23:05;;;;;;;16.47;15.77;;;22.70;22.90;;;;;;6280164;22;20480;-79
2022/07/11 16:25:37;;;;;;;17.50;16.47;;;22.80;22.70;;;;;;6308950;22;20405;-81
2022/07/11 16:28:03;;;;;;;16.33;15.73;;;22.80;22.60;;;;;;6288734;22;20135;-81
2022/07/11 16:30:36;;;;;;;16.73;16.03;;;22.80;22.80;;;;;;6286680;22;20391;-81
2022/07/11 16:33:03;;;;;;;15.80;15.00;;;22.70;23.00;;;;;;6288554;22;20166;-81
2022/07/11 16:35:29;;;;;;;16.47;15.87;;;22.70;23.00;;;;;;6287434;22;20425;-81
2022/07/11 16:37:54;;;;;;;15.23;14.73;;;22.70;22.90;;;;;;6310215;22;20393;-81
2022/07/11 16:43:19;;;;;;;17.60;16.70;;;22.80;22.50;;;;;;6283507;22;20169;-81
2022/07/11 16:45:45;;;;;;;17.50;16.50;;;22.80;23.40;;;;;;6281970;22;20473;-81
2022/07/11 16:48:11;;;;;;;16.97;16.20;;;22.70;23.00;;;;;;6284611;22;20912;-78
2022/07/11 16:50:36;;;;;;;17.40;16.70;;;22.80;23.10;;;;;;6281594;22;20381;-80
2022/07/11 16:53:05;;;;;;;17.40;16.70;;;22.70;23.30;;;;;;6305188;22;20204;-80
2022/07/11 16:55:33;;;;;;;17.47;16.37;;;22.70;23.20;;;;;;6282001;22;20169;-80
2022/07/11 16:58:00;;;;;;;16.33;15.70;;;22.70;23.10;;;;;;6281617;22;20382;-80
2022/07/11 17:00:26;;;;;;;15.90;15.40;;;22.70;23.10;;;;;;6279426;22;20472;-82
2022/07/11 17:02:54;;;;;;;16.60;15.90;;;22.80;22.70;;;;;;6283480;22;20374;-81
2022/07/11 17:05:19;;;;;;;17.13;16.50;;;22.90;22.40;;;;;;6281729;22;20177;-80
2022/07/11 17:10:29;;;;;;;15.67;15.07;;;22.80;22.60;;;;;;6281867;22;20146;-81
2022/07/11 17:12:55;;;;;;;16.13;15.43;;;22.70;22.60;;;;;;6281448;22;20610;-81
2022/07/11 17:15:20;;;;;;;16.20;15.57;;;22.70;22.60;;;;;;6282133;22;20171;-80
2022/07/11 17:17:46;;;;;;;16.33;15.73;;;22.80;22.70;;;;;;6308828;22;20610;-80
2022/07/11 17:20:12;;;;;;;15.90;15.20;;;22.80;22.70;;;;;;6281440;22;20664;-79
2022/07/11 17:22:37;;;;;;;16.07;15.33;;;22.80;22.90;;;;;;6283301;22;20169;-80
2022/07/11 17:25:03;;;;;;;15.53;14.93;;;22.70;22.90;;;;;;6282088;22;20224;-78
2022/07/11 17:27:29;;;;;;;15.87;15.27;;;22.70;23.00;;;;;;6283347;22;20151;-80
2022/07/11 17:29:55;;;;;;;16.33;15.50;;;22.70;23.10;;;;;;6283815;22;20146;-79
2022/07/11 17:32:20;;;;;;;17.13;16.23;;;22.80;22.30;;;;;;6304712;22;20182;-79
2022/07/11 17:34:49;;;;;;;17.20;16.40;;;22.80;22.60;;;;;;6280740;22;20220;-79
2022/07/11 17:37:26;;;;;;;17.13;16.40;;;22.80;22.60;;;;;;6280889;22;20147;-79
2022/07/11 17:39:52;;;;;;;17.60;16.70;;;22.80;22.30;;;;;;6277541;22;20841;-79
2022/07/11 17:42:18;;;;;;;17.33;16.53;;;22.80;22.10;;;;;;6278544;22;20393;-78
2022/07/11 17:44:44;;;;;;;16.67;16.03;;;22.80;22.40;;;;;;6280088;22;20202;-81
2022/07/11 17:47:10;;;;;;;17.63;17.03;;;22.80;22.20;;;;;;6283000;22;20908;-79
2022/07/11 17:49:36;;;;;;;17.80;17.20;;;22.70;22.30;;;;;;6277296;22;20385;-77
2022/07/11 17:52:01;;;;;;;18.30;17.60;;;22.70;22.40;;;;;;6279428;22;20201;-79
2022/07/11 17:54:27;;;;;;;17.23;16.53;;;22.70;22.60;;;;;;6279993;22;20642;-80
2022/07/11 17:56:53;;;;;;;16.80;16.10;;;22.70;22.60;;;;;;6281781;22;20147;-78
2022/07/11 17:59:26;;;;;;;17.23;16.53;;;22.60;22.70;;;;;;6280668;22;20639;-79
2022/07/11 18:01:57;;;;;;;16.93;16.33;;;22.70;22.10;;;;;;6279705;22;20149;-80
2022/07/11 18:04:23;;;;;;;16.63;16.03;;;22.60;22.40;;;;;;6278909;22;20397;-80
2022/07/11 18:06:49;;;;;;;17.43;16.73;;;22.60;22.50;;;;;;6279891;22;20385;-83
2022/07/11 18:09:18;;;;;;;16.17;15.47;;;22.60;22.40;;;;;;6282022;22;20379;-80
2022/07/11 18:11:44;;;;;;;16.70;16.10;;;22.60;22.50;;;;;;6280516;22;20158;-79
2022/07/11 18:14:10;;;;;;;17.53;16.83;;;22.60;22.50;;;;;;6306117;22;20427;-79
2022/07/11 18:16:36;;;;;;;17.43;16.53;;;22.60;23.50;;;;;;6282278;22;20369;-79
2022/07/11 18:19:02;;;;;;;16.70;16.10;;;22.60;22.10;;;;;;6281594;22;20419;-79
2022/07/11 18:21:28;;;;;;;16.93;16.23;;;22.50;22.00;;;;;;6280090;22;20151;-79
2022/07/11 18:23:53;;;;;;;16.97;16.37;;;22.50;23.30;;;;;;6280488;22;20490;-80
2022/07/11 18:26:19;;;;;;;16.10;15.50;;;22.50;21.70;;;;;;6280238;22;20455;-79
2022/07/11 18:28:45;;;;;;;16.13;15.30;;;22.50;21.70;;;;;;6281681;22;20147;-79
2022/07/11 18:31:10;;;;;;;17.13;16.33;;;22.50;21.40;;;;;;6280274;22;20177;-82
2022/07/11 18:33:37;;;;;;;16.43;15.83;;;22.50;21.90;;;;;;6281114;22;20181;-79
2022/07/11 18:36:11;;;;;;;15.60;15.10;;;22.50;21.70;;;;;;6306120;22;20197;-79
2022/07/11 18:41:22;;;;;;;15.80;15.20;;;22.40;21.80;;;;;;6281561;22;20396;-79
2022/07/11 18:44:06;;;;;;;16.07;15.47;;;22.40;22.30;;;;;;6280602;22;20775;-82
2022/07/11 18:46:33;;;;;;;16.67;16.07;;;22.30;22.00;;;;;;6280057;22;20757;-79
2022/07/11 18:49:02;;;;;;;16.10;15.40;;;22.30;22.10;;;;;;6280574;22;20381;-79
2022/07/11 18:51:28;;;;;;;16.00;15.40;;;22.30;22.40;;;;;;6279279;22;20381;-79
2022/07/11 18:54:55;;;;;;;;;;;;;;;;;;;;;
2022/07/11 18:58:13;;;;;;;17.30;16.63;;;22.30;22.70;;;;;;6174208;23;20376;-81
2022/07/11 19:00:45;;;;;;;16.60;16.00;;;22.20;22.70;;;;;;6142903;23;20378;-84
2022/07/11 19:04:10;;;;;;;17.10;16.30;;;22.20;23.00;;;;;;6144116;23;20389;-82
2022/07/11 19:10:47;;;;;;;15.83;15.23;;;22.20;23.20;;;;;;6069420;23;20406;-82
2022/07/11 19:16:46;;;;;;;17.27;16.57;;;22.10;23.10;;;;;;6112704;23;20382;-82
2022/07/11 19:20:05;;;;;;;16.67;15.97;;;22.10;23.10;;;;;;6089039;23;20403;-82
2022/07/11 19:22:37;;;;;;;17.30;16.50;;;22.10;23.60;;;;;;6059856;23;20388;-82
2022/07/11 19:25:32;;;;;;;17.00;16.30;;;22.00;23.60;;;;;;6056653;23;20412;-82
2022/07/11 19:28:30;;;;;;;16.77;15.97;;;22.00;23.80;;;;;;6051113;23;20388;-82
2022/07/11 19:31:07;;;;;;;16.50;15.80;;;22.00;23.90;;;;;;6099097;23;20944;-82
2022/07/11 19:33:42;;;;;;;17.67;16.60;;;22.00;24.00;;;;;;6196526;22;20433;-82
2022/07/11 19:36:23;;;;;;;;;;;;;;;;;;;;;
2022/07/11 19:39:13;;;;;;;17.23;16.53;;;21.90;24.20;;;;;;6295118;22;20377;-82
2022/07/11 19:42:13;;;;;;;16.90;16.30;;;21.90;24.20;;;;;;6293803;22;20400;-82
2022/07/11 19:48:01;;;;;;;16.60;16.00;;;21.90;24.50;;;;;;6294566;22;20357;-81
2022/07/11 19:50:43;;;;;;;17.03;16.43;;;21.80;24.60;;;;;;6271969;22;20370;-82
2022/07/11 19:53:16;;;;;;;16.80;16.20;;;21.80;24.60;;;;;;6292512;22;20424;-81
2022/07/11 19:59:07;;;;;;;17.70;17.00;;;21.70;25.00;;;;;;6283317;22;20385;-81
2022/07/11 20:01:52;;;;;;;;;;;;;;;;;;;;;
2022/07/11 20:04:21;;;;;;;17.40;16.70;;;21.70;25.10;;;;;;6294702;22;20380;-83
2022/07/11 20:10:30;;;;;;;;;;;;;;;;;;;;;
2022/07/11 20:13:29;;;;;;;18.70;17.70;;;21.50;26.50;;;;;;6200280;23;20455;-82
2022/07/11 20:16:26;;;;;;;17.57;16.70;;;21.50;26.40;;;;;;6200388;23;20411;-82
2022/07/11 20:18:54;;;;;;;17.47;16.80;;;21.30;26.70;;;;;;6163303;23;20460;-83
2022/07/11 20:21:20;;;;;;;18.03;17.33;;;21.30;27.10;;;;;;6200652;23;20507;-82
2022/07/11 20:24:20;;;;;;;18.60;17.90;;;21.30;26.80;;;;;;6199422;23;20443;-82
2022/07/11 20:31:01;;;;;;;18.00;17.20;;;21.40;26.60;;;;;;6141291;23;20409;-82
2022/07/11 20:33:42;;;;;;;17.60;16.90;;;21.40;26.80;;;;;;6177347;23;20455;-82
2022/07/11 20:36:17;;;;;;;17.20;16.40;;;21.30;26.70;;;;;;6176196;23;20438;-82
2022/07/11 20:39:07;;;;;;;17.77;16.97;;;21.30;26.80;;;;;;6200381;23;20422;-82
2022/07/11 20:42:35;;;;;;;;;;;;;;;;;;;;;
2022/07/11 20:45:23;;;;;;;17.50;16.80;;;21.30;26.70;;;;;;6167670;23;20395;-82
2022/07/11 20:51:15;;;;;;;17.90;17.00;;;21.40;27.10;;;;;;6276660;22;20381;-82
2022/07/11 20:53:47;;;;;;;17.83;17.13;;;21.30;27.10;;;;;;6293662;22;20488;-83
2022/07/11 20:56:26;;;;;;;17.37;16.70;;;21.30;27.10;;;;;;6292895;22;20743;-82
2022/07/11 20:59:16;;;;;;;17.50;16.80;;;21.30;26.70;;;;;;6318524;22;20706;-82
2022/07/11 21:02:00;;;;;;;17.23;16.53;;;21.30;26.90;;;;;;6293080;22;20361;-84
2022/07/11 21:05:12;;;;;;;17.83;17.13;;;21.30;26.70;;;;;;6294696;22;20480;-82
2022/07/11 21:10:49;;;;;;;18.40;17.50;;;21.20;27.20;;;;;;6288939;22;20373;-84
2022/07/11 21:13:20;;;;;;;17.80;17.10;;;21.20;27.10;;;;;;6293185;22;20427;-81
2022/07/11 21:16:32;;;;;;;18.17;17.40;;;21.10;27.10;;;;;;6320196;22;20185;-82
2022/07/11 21:19:35;;;;;;;18.00;17.30;;;21.20;27.20;;;;;;6294775;22;20373;-81
2022/07/11 21:22:09;;;;;;;17.30;16.60;;;21.10;27.40;;;;;;6317743;22;20378;-81
2022/07/11 21:24:47;;;;;;;17.27;16.67;;;21.10;27.20;;;;;;6294294;22;20450;-83
2022/07/11 21:27:26;;;;;;;18.13;17.33;;;21.10;27.40;;;;;;6295600;22;20374;-82
2022/07/11 21:29:55;;;;;;;18.77;17.97;;;21.10;27.50;;;;;;6295978;22;20833;-81
2022/07/11 21:32:29;;;;;;;17.87;17.17;;;21.10;27.60;;;;;;6295691;22;20405;-82
2022/07/11 21:35:04;;;;;;;17.43;16.80;;;21.10;27.70;;;;;;6294592;22;20447;-81
2022/07/11 21:37:46;;;;;;;16.70;16.10;;;21.00;27.60;;;;;;6293280;22;20440;-83
2022/07/11 21:40:18;;;;;;;17.50;16.77;;;21.00;27.70;;;;;;6291866;22;20361;-83
2022/07/11 21:42:52;;;;;;;18.17;17.47;;;21.10;28.20;;;;;;6293790;22;20385;-83
2022/07/11 21:45:31;;;;;;;17.63;16.93;;;21.00;27.80;;;;;;6292600;22;20401;-82
2022/07/11 21:47:59;;;;;;;17.10;16.40;;;21.00;27.70;;;;;;6291200;22;20400;-82
2022/07/11 21:50:35;;;;;;;19.10;18.40;;;21.00;27.90;;;;;;6292795;22;20464;-81
2022/07/11 21:53:35;;;;;;;17.93;17.13;;;21.00;27.80;;;;;;6291382;22;20417;-82
2022/07/11 21:56:06;;;;;;;19.27;18.13;;;21.00;27.90;;;;;;6291706;22;20393;-82
2022/07/11 21:59:08;;;;;;;18.87;18.07;;;21.00;28.10;;;;;;6293345;22;20354;-82
2022/07/11 22:02:43;;;;;;;18.70;17.90;;;21.00;28.10;;;;;;6200121;23;20379;-82
2022/07/11 22:05:20;;;;;;;18.17;17.47;;;21.00;28.00;;;;;;6251110;22;20393;-83
2022/07/11 22:08:28;;;;;;;18.40;17.40;;;21.00;28.00;;;;;;6294346;22;20408;-84
2022/07/11 22:11:13;;;;;;;17.60;16.90;;;21.00;28.00;;;;;;6307031;22;20399;-81
2022/07/11 22:14:05;;;;;;;18.20;17.50;;;21.00;28.10;;;;;;6294937;22;20429;-83